Time;durP1;ratioP1;P1;durP2;ratioP2;P2;SDS_P1;SDS_P2;PMS_P1;PMS_P2;Temp;Humidity;BMP_temperature;BMP_pressure;BME280_temperature;BME280_humidity;BME280_pressure;Samples;Min_cycle;Max_cycle;Signal;HPM_P1;HPM_P2
2023/09/03 00:01:01;;;;;;;4.50;1.83;;;16.80;99.90;;;;;;5091588;28;20414;-72
2023/09/03 00:03:27;;;;;;;6.00;2.67;;;16.80;99.90;;;;;;5091627;28;20196;-72
2023/09/03 00:05:56;;;;;;;2.70;1.90;;;16.70;99.90;;;;;;5089659;28;20266;-73
2023/09/03 00:08:23;;;;;;;3.27;1.70;;;16.50;99.90;;;;;;5091237;28;20186;-73
2023/09/03 00:10:49;;;;;;;8.50;1.80;;;16.50;99.90;;;;;;5090844;28;20946;-73
2023/09/03 00:13:15;;;;;;;2.67;1.97;;;16.40;99.90;;;;;;5089221;28;20479;-72
2023/09/03 00:15:41;;;;;;;12.90;2.60;;;16.30;99.90;;;;;;5090852;28;20447;-72
2023/09/03 00:18:08;;;;;;;2.60;2.27;;;16.20;99.90;;;;;;5089286;28;20185;-72
2023/09/03 00:20:33;;;;;;;2.87;1.90;;;16.20;99.90;;;;;;5089196;28;20181;-72
2023/09/03 00:22:59;;;;;;;4.10;2.27;;;16.30;99.90;;;;;;5088779;28;20441;-71
2023/09/03 00:25:25;;;;;;;5.23;2.40;;;16.40;99.90;;;;;;5088565;28;20266;-72
2023/09/03 00:27:50;;;;;;;3.40;2.27;;;16.40;99.90;;;;;;5090149;28;20189;-71
2023/09/03 00:30:16;;;;;;;2.77;1.83;;;16.40;99.90;;;;;;5089999;28;20261;-71
2023/09/03 00:32:42;;;;;;;3.37;2.50;;;16.40;99.90;;;;;;5090137;28;20178;-72
2023/09/03 00:35:08;;;;;;;3.90;2.67;;;16.40;99.90;;;;;;5089794;28;20443;-71
2023/09/03 00:37:33;;;;;;;3.00;1.87;;;16.40;99.90;;;;;;5089827;28;20733;-71
2023/09/03 00:39:59;;;;;;;9.07;2.20;;;16.50;99.90;;;;;;5089794;28;20511;-71
2023/09/03 00:42:26;;;;;;;2.10;1.73;;;16.50;99.90;;;;;;5089832;28;20187;-71
2023/09/03 00:44:52;;;;;;;4.83;2.13;;;16.50;99.90;;;;;;5089801;28;20501;-71
2023/09/03 00:47:18;;;;;;;5.57;2.20;;;16.50;99.90;;;;;;5089544;28;20527;-72
2023/09/03 00:49:44;;;;;;;6.27;2.10;;;16.40;99.90;;;;;;5089760;28;20604;-71
2023/09/03 00:52:11;;;;;;;2.30;2.10;;;16.40;99.90;;;;;;5089561;28;20794;-71
2023/09/03 00:54:37;;;;;;;3.70;2.10;;;16.40;99.90;;;;;;5089352;28;20197;-71
2023/09/03 00:57:03;;;;;;;8.27;2.70;;;16.40;99.90;;;;;;5089664;28;20419;-71
2023/09/03 00:59:30;;;;;;;2.30;2.10;;;16.30;99.90;;;;;;5089424;28;20424;-70
2023/09/03 01:01:56;;;;;;;4.87;1.93;;;16.30;99.90;;;;;;5089404;28;20472;-72
2023/09/03 01:04:22;;;;;;;2.60;1.83;;;16.30;99.90;;;;;;5089162;28;20518;-72
2023/09/03 01:06:49;;;;;;;4.47;2.43;;;16.30;99.90;;;;;;5088056;28;20528;-72
2023/09/03 01:09:15;;;;;;;4.03;2.53;;;16.30;99.90;;;;;;5089403;28;20187;-72
2023/09/03 01:11:45;;;;;;;6.30;2.63;;;16.30;99.90;;;;;;5087659;28;20953;-72
2023/09/03 01:14:10;;;;;;;5.90;2.40;;;16.20;99.90;;;;;;5089137;28;20793;-72
2023/09/03 01:17:15;;;;;;;3.33;2.40;;;16.30;99.90;;;;;;5089021;28;20451;-72
2023/09/03 01:19:51;;;;;;;3.57;2.47;;;16.30;99.90;;;;;;5050216;28;20197;-71
2023/09/03 01:22:37;;;;;;;5.83;2.23;;;16.20;99.90;;;;;;5089125;28;20787;-71
2023/09/03 01:25:35;;;;;;;7.10;3.27;;;16.20;99.90;;;;;;5087072;28;20747;-72
2023/09/03 01:28:25;;;;;;;7.37;2.27;;;16.20;99.90;;;;;;5089068;28;20420;-72
2023/09/03 01:30:56;;;;;;;2.90;2.27;;;16.20;99.90;;;;;;5089247;28;20411;-72
2023/09/03 01:33:24;;;;;;;4.00;2.47;;;16.20;99.90;;;;;;5089019;28;20411;-71
2023/09/03 01:35:50;;;;;;;3.07;2.50;;;16.30;99.90;;;;;;5088916;28;20428;-71
2023/09/03 01:38:16;;;;;;;3.93;2.90;;;16.20;99.90;;;;;;5088801;28;20501;-72
2023/09/03 01:40:42;;;;;;;4.57;2.30;;;16.10;99.90;;;;;;5088915;28;20969;-71
2023/09/03 01:43:07;;;;;;;5.00;2.77;;;16.10;99.90;;;;;;5088722;28;20396;-71
2023/09/03 01:45:53;;;;;;;9.83;2.63;;;16.00;99.90;;;;;;5088532;28;20727;-71
2023/09/03 01:48:50;;;;;;;4.23;2.83;;;16.00;99.90;;;;;;5088707;28;20177;-72
2023/09/03 01:51:36;;;;;;;4.37;2.50;;;15.90;99.90;;;;;;5089154;28;20419;-72
2023/09/03 01:54:13;;;;;;;3.23;2.90;;;15.80;99.90;;;;;;5089258;28;20431;-71
2023/09/03 01:56:55;;;;;;;6.90;2.33;;;15.80;99.90;;;;;;5087819;28;20833;-72
2023/09/03 01:59:26;;;;;;;2.13;1.93;;;15.80;99.90;;;;;;5089298;28;20451;-71
2023/09/03 02:01:52;;;;;;;7.47;2.43;;;15.90;99.90;;;;;;5087650;28;20945;-71
2023/09/03 02:04:21;;;;;;;4.10;2.17;;;15.90;99.90;;;;;;5089181;28;20528;-72
2023/09/03 02:06:47;;;;;;;4.53;2.77;;;15.90;99.90;;;;;;5070491;28;20531;-71
2023/09/03 02:09:13;;;;;;;3.17;1.70;;;15.90;99.90;;;;;;5088905;28;20419;-72
2023/09/03 02:11:39;;;;;;;5.13;2.60;;;15.90;99.90;;;;;;5089325;28;20720;-72
2023/09/03 02:14:05;;;;;;;3.03;2.20;;;15.90;99.90;;;;;;5087104;28;20422;-72
2023/09/03 02:16:30;;;;;;;3.23;2.50;;;16.00;99.90;;;;;;5088610;28;20205;-72
2023/09/03 02:18:56;;;;;;;2.67;2.47;;;16.10;99.90;;;;;;5088634;28;20258;-72
2023/09/03 02:21:22;;;;;;;2.93;2.73;;;16.10;99.90;;;;;;5088433;28;20189;-72
2023/09/03 02:23:47;;;;;;;3.47;2.67;;;16.00;99.90;;;;;;5086958;28;20228;-72
2023/09/03 02:26:13;;;;;;;9.40;3.10;;;16.00;99.90;;;;;;5088419;28;20214;-72
2023/09/03 02:28:40;;;;;;;4.13;2.60;;;16.00;99.90;;;;;;5088449;28;20234;-71
2023/09/03 02:31:06;;;;;;;4.73;2.33;;;16.00;99.90;;;;;;5086777;28;20192;-71
2023/09/03 02:33:32;;;;;;;4.80;2.87;;;15.90;99.90;;;;;;5088389;28;20416;-71
2023/09/03 02:35:57;;;;;;;3.73;2.50;;;15.90;99.90;;;;;;5091583;28;20215;-72
2023/09/03 02:38:23;;;;;;;3.40;2.63;;;16.00;99.90;;;;;;5090658;28;20198;-71
2023/09/03 02:40:48;;;;;;;4.60;2.37;;;15.90;99.90;;;;;;5092192;28;20181;-71
2023/09/03 02:43:14;;;;;;;3.40;2.30;;;15.90;99.90;;;;;;5090663;28;20264;-72
2023/09/03 02:45:40;;;;;;;4.77;2.90;;;15.80;99.90;;;;;;5092098;28;20284;-71
2023/09/03 02:48:11;;;;;;;2.43;2.23;;;15.90;99.90;;;;;;5090889;28;20493;-71
2023/09/03 02:50:37;;;;;;;4.23;2.80;;;15.90;99.90;;;;;;5092299;28;20176;-71
2023/09/03 02:53:04;;;;;;;3.23;2.53;;;15.80;99.90;;;;;;5092544;28;20441;-71
2023/09/03 02:55:30;;;;;;;3.03;2.73;;;15.80;99.90;;;;;;5090840;28;20919;-71
2023/09/03 02:57:56;;;;;;;3.93;3.00;;;15.80;99.90;;;;;;5092381;28;20415;-71
2023/09/03 03:00:23;;;;;;;5.70;2.43;;;15.70;99.90;;;;;;5092256;28;20923;-71
2023/09/03 03:02:49;;;;;;;9.33;2.90;;;15.80;99.90;;;;;;5074144;28;20720;-71
2023/09/03 03:05:14;;;;;;;3.77;2.50;;;15.80;99.90;;;;;;5091318;28;20435;-71
2023/09/03 03:07:43;;;;;;;3.73;2.43;;;15.80;99.90;;;;;;5092588;28;20470;-71
2023/09/03 03:10:09;;;;;;;2.57;2.37;;;15.80;99.90;;;;;;5090819;28;20721;-71
2023/09/03 03:12:35;;;;;;;2.80;2.30;;;15.70;99.90;;;;;;5091781;28;20940;-71
2023/09/03 03:15:00;;;;;;;5.07;2.33;;;15.70;99.90;;;;;;5091949;28;20435;-71
2023/09/03 03:17:26;;;;;;;4.53;3.00;;;15.70;99.90;;;;;;5091687;28;20200;-72
2023/09/03 03:19:51;;;;;;;3.83;2.27;;;15.70;99.90;;;;;;5091465;28;20183;-72
2023/09/03 03:22:17;;;;;;;2.47;2.07;;;15.70;99.90;;;;;;5091637;28;20190;-72
2023/09/03 03:24:43;;;;;;;4.93;2.73;;;15.70;99.90;;;;;;5091231;28;20288;-72
2023/09/03 03:27:09;;;;;;;2.77;2.53;;;15.70;99.90;;;;;;5091233;28;20218;-72
2023/09/03 03:29:34;;;;;;;3.03;2.50;;;15.70;99.90;;;;;;5091790;28;20634;-72
2023/09/03 03:32:00;;;;;;;3.30;2.30;;;15.70;99.90;;;;;;5090056;28;20414;-71
2023/09/03 03:34:26;;;;;;;2.70;2.50;;;15.60;99.90;;;;;;5091039;28;20197;-72
2023/09/03 03:36:52;;;;;;;4.67;3.03;;;15.60;99.90;;;;;;5091110;28;20255;-71
2023/09/03 03:39:19;;;;;;;4.33;3.17;;;15.60;99.90;;;;;;5091079;28;20185;-72
2023/09/03 03:41:45;;;;;;;5.70;2.70;;;15.60;99.90;;;;;;5090906;28;20845;-72
2023/09/03 03:44:11;;;;;;;3.20;2.40;;;15.70;99.90;;;;;;5090929;28;20461;-72
2023/09/03 03:46:37;;;;;;;10.80;2.20;;;15.70;99.90;;;;;;5088614;28;20994;-72
2023/09/03 03:49:03;;;;;;;2.33;2.13;;;15.60;99.90;;;;;;5090900;28;20437;-72
2023/09/03 03:51:29;;;;;;;2.73;2.30;;;15.60;99.90;;;;;;5090926;28;20179;-72
2023/09/03 03:53:55;;;;;;;5.13;2.70;;;15.50;99.90;;;;;;5090742;28;20427;-71
2023/09/03 03:56:21;;;;;;;5.73;2.67;;;15.40;99.90;;;;;;5090772;28;20227;-72
2023/09/03 03:58:47;;;;;;;3.77;3.10;;;15.50;99.90;;;;;;5091257;28;20415;-72
2023/09/03 04:01:23;;;;;;;2.93;2.50;;;15.50;99.90;;;;;;5090724;28;20925;-72
2023/09/03 04:03:50;;;;;;;4.93;2.57;;;15.50;99.90;;;;;;5090749;28;20429;-72
2023/09/03 04:06:16;;;;;;;3.70;2.80;;;15.50;99.90;;;;;;5090470;28;20507;-72
2023/09/03 04:08:45;;;;;;;5.10;2.77;;;15.50;99.90;;;;;;5072320;28;20426;-72
2023/09/03 04:11:12;;;;;;;3.80;2.53;;;15.40;99.90;;;;;;5090662;28;20230;-72
2023/09/03 04:13:39;;;;;;;3.70;2.50;;;15.50;99.90;;;;;;5090903;28;21320;-72
2023/09/03 04:16:11;;;;;;;8.33;2.70;;;15.60;99.90;;;;;;5090764;28;20447;-72
2023/09/03 04:18:37;;;;;;;3.50;2.90;;;15.60;99.90;;;;;;5091251;28;20419;-72
2023/09/03 04:21:03;;;;;;;5.90;2.80;;;15.60;99.90;;;;;;5090934;28;20416;-72
2023/09/03 04:23:29;;;;;;;5.30;2.43;;;15.60;99.90;;;;;;5091094;28;20422;-72
2023/09/03 04:25:58;;;;;;;3.17;2.43;;;15.50;99.90;;;;;;5090691;28;20470;-72
2023/09/03 04:28:24;;;;;;;6.60;2.97;;;15.50;99.90;;;;;;5090978;28;20173;-72
2023/09/03 04:30:59;;;;;;;4.63;2.10;;;15.50;99.90;;;;;;5090765;28;20410;-71
2023/09/03 04:33:25;;;;;;;3.40;2.63;;;15.50;99.90;;;;;;5090610;28;20922;-71
2023/09/03 04:35:58;;;;;;;4.07;3.30;;;15.50;99.90;;;;;;5090385;28;20530;-71
2023/09/03 04:38:25;;;;;;;3.17;2.50;;;15.60;99.90;;;;;;5088470;28;20795;-73
2023/09/03 04:40:51;;;;;;;4.87;2.13;;;15.60;99.90;;;;;;5090235;28;20761;-72
2023/09/03 04:43:18;;;;;;;5.60;2.37;;;15.50;99.90;;;;;;5088616;28;20517;-72
2023/09/03 04:45:48;;;;;;;4.10;2.90;;;15.50;99.90;;;;;;5089873;28;20442;-72
2023/09/03 04:48:15;;;;;;;3.73;2.47;;;15.50;99.90;;;;;;5089844;28;20979;-72
2023/09/03 04:50:40;;;;;;;4.80;2.83;;;15.50;99.90;;;;;;5089956;28;20417;-72
2023/09/03 04:53:07;;;;;;;5.43;3.20;;;15.50;99.90;;;;;;5089766;28;20461;-71
2023/09/03 04:55:33;;;;;;;3.07;2.37;;;15.50;99.90;;;;;;5089362;28;20705;-71
2023/09/03 04:57:59;;;;;;;3.30;2.93;;;15.50;99.90;;;;;;5087436;28;20417;-71
2023/09/03 05:00:25;;;;;;;18.90;3.03;;;15.60;99.90;;;;;;5089703;28;20422;-71
2023/09/03 05:02:51;;;;;;;3.50;2.70;;;15.50;99.90;;;;;;5089310;28;20796;-72
2023/09/03 05:05:18;;;;;;;4.60;2.50;;;15.70;99.90;;;;;;5089342;28;20201;-71
2023/09/03 05:07:44;;;;;;;3.73;2.90;;;15.60;99.90;;;;;;5089253;28;20326;-72
2023/09/03 05:10:10;;;;;;;3.57;3.07;;;15.60;99.90;;;;;;5089267;28;20509;-72
2023/09/03 05:12:35;;;;;;;3.17;2.57;;;15.70;99.90;;;;;;5087577;28;20552;-73
2023/09/03 05:15:02;;;;;;;5.40;3.00;;;15.70;99.90;;;;;;5089075;28;20904;-72
2023/09/03 05:17:27;;;;;;;2.40;2.20;;;15.70;99.90;;;;;;5089276;28;20193;-72
2023/09/03 05:19:53;;;;;;;3.27;2.60;;;15.70;99.90;;;;;;5087691;28;20434;-72
2023/09/03 05:22:18;;;;;;;7.93;3.07;;;15.70;99.90;;;;;;5070744;28;20252;-72
2023/09/03 05:24:44;;;;;;;3.30;2.83;;;15.70;99.90;;;;;;5087446;28;20198;-72
2023/09/03 05:27:09;;;;;;;10.57;3.33;;;15.70;99.90;;;;;;5088835;28;20204;-72
2023/09/03 05:29:35;;;;;;;2.83;2.43;;;15.70;99.90;;;;;;5088929;28;20185;-71
2023/09/03 05:32:01;;;;;;;5.57;2.97;;;15.70;99.90;;;;;;5088907;28;20185;-71
2023/09/03 05:34:27;;;;;;;9.83;3.63;;;15.70;99.90;;;;;;5087411;28;20180;-72
2023/09/03 05:36:53;;;;;;;7.20;3.07;;;15.70;99.90;;;;;;5087511;28;20172;-71
2023/09/03 05:39:19;;;;;;;4.13;3.73;;;15.80;99.90;;;;;;5088747;28;20945;-72
2023/09/03 05:41:44;;;;;;;4.90;3.20;;;15.90;99.90;;;;;;5089208;28;20655;-71
2023/09/03 05:44:12;;;;;;;4.10;2.90;;;15.90;99.90;;;;;;5088567;28;20688;-71
2023/09/03 05:46:38;;;;;;;4.83;3.50;;;16.00;99.90;;;;;;5087264;28;20213;-72
2023/09/03 05:49:04;;;;;;;3.50;2.83;;;16.00;99.90;;;;;;5087381;28;20417;-72
2023/09/03 05:51:29;;;;;;;5.77;3.37;;;16.10;99.90;;;;;;5088584;28;20190;-72
2023/09/03 05:53:55;;;;;;;5.67;3.10;;;16.30;99.90;;;;;;5088468;28;20420;-72
2023/09/03 05:56:21;;;;;;;2.93;2.50;;;16.30;99.90;;;;;;5088701;28;20213;-71
2023/09/03 05:58:47;;;;;;;5.20;2.90;;;16.50;99.90;;;;;;5088551;28;20185;-71
2023/09/03 06:01:13;;;;;;;5.73;3.20;;;16.60;99.90;;;;;;5087120;28;20192;-71
2023/09/03 06:03:39;;;;;;;4.77;2.80;;;16.70;99.90;;;;;;5088687;28;20186;-71
2023/09/03 06:06:07;;;;;;;3.10;2.20;;;16.80;99.90;;;;;;5088307;28;20210;-71
2023/09/03 06:08:33;;;;;;;4.60;2.20;;;16.80;99.90;;;;;;5088610;28;20420;-71
2023/09/03 06:11:00;;;;;;;3.80;2.30;;;16.80;99.90;;;;;;5094115;28;20416;-71
2023/09/03 06:13:26;;;;;;;4.63;2.60;;;16.90;99.90;;;;;;5095233;28;20417;-71
2023/09/03 06:15:52;;;;;;;5.70;2.87;;;16.90;99.90;;;;;;5093841;28;20440;-71
2023/09/03 06:18:18;;;;;;;2.53;2.30;;;17.00;99.90;;;;;;5076779;28;21033;-71
2023/09/03 06:20:43;;;;;;;2.40;2.20;;;17.00;99.90;;;;;;5093719;28;20179;-71
2023/09/03 06:23:09;;;;;;;3.93;3.40;;;17.10;99.90;;;;;;5095076;28;20217;-71
2023/09/03 06:25:36;;;;;;;7.47;2.60;;;17.20;99.90;;;;;;5094774;28;20203;-71
2023/09/03 06:28:02;;;;;;;6.10;2.60;;;17.20;99.90;;;;;;5093732;28;20178;-71
2023/09/03 06:30:28;;;;;;;4.50;2.43;;;17.30;99.90;;;;;;5095133;28;20419;-71
2023/09/03 06:32:54;;;;;;;10.53;2.30;;;17.50;99.90;;;;;;5095137;28;20428;-72
2023/09/03 06:35:19;;;;;;;7.23;2.77;;;17.50;99.90;;;;;;5095231;28;20205;-72
2023/09/03 06:37:45;;;;;;;4.27;2.63;;;17.40;99.90;;;;;;5094994;28;20186;-72
2023/09/03 06:40:14;;;;;;;6.77;2.87;;;17.40;99.90;;;;;;5094727;28;20189;-72
2023/09/03 06:42:41;;;;;;;3.60;2.23;;;17.50;99.90;;;;;;5094815;28;20181;-73
2023/09/03 06:45:07;;;;;;;4.77;2.20;;;17.60;99.90;;;;;;5094975;28;21042;-71
2023/09/03 06:47:33;;;;;;;7.53;2.00;;;17.70;99.90;;;;;;5094628;28;20459;-72
2023/09/03 06:49:58;;;;;;;6.30;2.67;;;18.00;99.90;;;;;;5095141;28;20432;-72
2023/09/03 06:52:24;;;;;;;4.63;3.30;;;18.20;99.90;;;;;;5094779;28;20288;-71
2023/09/03 06:54:49;;;;;;;2.80;2.37;;;18.30;99.90;;;;;;5094572;28;20241;-71
2023/09/03 06:57:16;;;;;;;4.87;3.17;;;18.40;99.90;;;;;;5094970;28;20946;-71
2023/09/03 06:59:41;;;;;;;7.33;2.73;;;18.40;99.90;;;;;;5093243;28;20188;-72
2023/09/03 07:02:08;;;;;;;7.17;3.17;;;18.50;99.90;;;;;;5093319;28;20408;-72
2023/09/03 07:04:34;;;;;;;8.10;3.10;;;18.60;99.90;;;;;;5093477;28;20268;-71
2023/09/03 07:07:02;;;;;;;5.60;3.40;;;18.70;99.90;;;;;;5093070;28;20993;-72
2023/09/03 07:09:29;;;;;;;4.43;3.07;;;18.60;99.90;;;;;;5094659;28;20887;-72
2023/09/03 07:11:54;;;;;;;6.83;3.27;;;18.70;99.90;;;;;;5094625;28;20414;-72
2023/09/03 07:14:20;;;;;;;5.57;3.00;;;18.80;99.90;;;;;;5094005;28;20480;-72
2023/09/03 07:16:46;;;;;;;5.30;3.33;;;18.70;99.90;;;;;;5074633;28;20210;-72
2023/09/03 07:19:12;;;;;;;4.90;2.90;;;18.80;99.90;;;;;;5091715;28;20435;-72
2023/09/03 07:21:38;;;;;;;3.40;2.57;;;18.80;99.90;;;;;;5090475;28;20190;-72
2023/09/03 07:24:04;;;;;;;6.07;4.40;;;19.00;99.90;;;;;;5089852;28;20234;-72
2023/09/03 07:26:29;;;;;;;6.60;4.07;;;19.00;99.90;;;;;;5088229;28;20222;-72
2023/09/03 07:28:55;;;;;;;5.93;3.00;;;19.00;99.90;;;;;;5089842;28;20507;-72
2023/09/03 07:31:21;;;;;;;4.30;3.10;;;19.10;99.90;;;;;;5071281;28;20179;-72
2023/09/03 07:33:47;;;;;;;5.73;3.20;;;19.00;99.90;;;;;;5090149;28;20185;-72
2023/09/03 07:36:13;;;;;;;4.20;3.00;;;19.10;99.90;;;;;;5089669;28;20442;-72
2023/09/03 07:38:39;;;;;;;3.73;2.60;;;19.20;99.90;;;;;;5089604;28;20847;-72
2023/09/03 07:41:05;;;;;;;3.80;3.10;;;19.20;99.90;;;;;;5089682;28;20275;-72
2023/09/03 07:43:30;;;;;;;5.63;2.50;;;19.30;99.90;;;;;;5088512;28;20186;-72
2023/09/03 07:45:56;;;;;;;5.80;2.27;;;19.40;99.90;;;;;;5071222;28;20268;-72
2023/09/03 07:48:22;;;;;;;4.20;2.47;;;19.50;99.90;;;;;;5088367;28;20259;-72
2023/09/03 07:50:49;;;;;;;5.60;3.03;;;19.60;99.90;;;;;;5089773;28;20190;-72
2023/09/03 07:53:14;;;;;;;5.77;2.90;;;19.60;99.90;;;;;;5088280;28;20280;-72
2023/09/03 07:55:40;;;;;;;6.10;2.83;;;19.70;99.90;;;;;;5089469;28;20472;-72
2023/09/03 07:58:06;;;;;;;3.10;2.13;;;19.80;99.90;;;;;;5090055;28;20192;-72
2023/09/03 08:00:32;;;;;;;2.20;2.00;;;19.90;99.90;;;;;;5089763;28;20175;-72
2023/09/03 08:02:57;;;;;;;3.40;2.73;;;19.90;99.90;;;;;;5090048;28;20843;-72
2023/09/03 08:05:23;;;;;;;3.27;2.80;;;20.00;99.90;;;;;;5088483;28;20229;-73
2023/09/03 08:07:50;;;;;;;3.73;2.63;;;20.10;99.90;;;;;;5089652;28;20233;-72
2023/09/03 08:10:16;;;;;;;7.60;2.70;;;20.20;99.90;;;;;;5089582;28;20413;-72
2023/09/03 08:12:41;;;;;;;7.97;2.90;;;20.20;99.90;;;;;;5089765;28;20421;-74
2023/09/03 08:15:07;;;;;;;3.73;2.20;;;20.30;99.90;;;;;;5089670;28;20267;-74
2023/09/03 08:17:33;;;;;;;6.57;2.83;;;20.40;99.90;;;;;;5071598;28;20190;-74
2023/09/03 08:19:59;;;;;;;2.83;2.53;;;20.50;99.90;;;;;;5072038;28;20428;-75
2023/09/03 08:22:24;;;;;;;3.20;2.50;;;20.70;99.90;;;;;;5088937;28;20183;-76
2023/09/03 08:24:50;;;;;;;5.77;2.50;;;20.70;99.90;;;;;;5088150;28;20222;-74
2023/09/03 08:27:16;;;;;;;4.30;2.53;;;20.80;99.90;;;;;;5071379;28;20225;-75
2023/09/03 08:29:42;;;;;;;5.50;3.07;;;20.90;99.90;;;;;;5087879;28;20297;-73
2023/09/03 08:32:07;;;;;;;4.90;2.30;;;21.00;99.90;;;;;;5089185;28;20274;-74
2023/09/03 08:34:33;;;;;;;3.97;2.50;;;21.00;99.90;;;;;;5087452;28;20420;-75
2023/09/03 08:36:58;;;;;;;5.23;2.63;;;21.10;99.90;;;;;;5087456;28;20561;-76
2023/09/03 08:39:24;;;;;;;5.33;2.80;;;21.10;99.90;;;;;;5089254;28;20207;-75
2023/09/03 08:41:50;;;;;;;4.97;3.07;;;21.30;99.90;;;;;;5089123;28;20182;-76
2023/09/03 08:44:42;;;;;;;3.17;2.13;;;21.40;99.90;;;;;;5089365;28;20948;-75
2023/09/03 08:47:11;;;;;;;3.30;3.00;;;21.50;99.90;;;;;;5089408;28;20458;-75
2023/09/03 08:49:39;;;;;;;3.87;2.47;;;21.60;99.90;;;;;;5087736;28;20413;-75
2023/09/03 08:52:06;;;;;;;3.63;2.70;;;21.60;99.90;;;;;;5087595;28;20412;-75
2023/09/03 08:54:32;;;;;;;4.20;2.33;;;21.80;99.90;;;;;;5088898;28;20526;-73
2023/09/03 08:56:59;;;;;;;4.50;2.90;;;21.90;99.90;;;;;;5087312;28;20533;-73
2023/09/03 08:59:25;;;;;;;3.33;2.80;;;22.00;99.90;;;;;;5087545;28;20252;-73
2023/09/03 09:01:53;;;;;;;3.30;2.90;;;22.20;99.90;;;;;;5088321;28;20976;-73
2023/09/03 09:04:19;;;;;;;3.90;2.50;;;22.30;99.90;;;;;;5086647;28;20701;-73
2023/09/03 09:06:46;;;;;;;6.07;3.80;;;22.50;99.90;;;;;;5087944;28;20477;-73
2023/09/03 09:09:15;;;;;;;5.70;2.80;;;22.60;99.90;;;;;;5088246;28;20414;-73
2023/09/03 09:11:46;;;;;;;5.20;2.70;;;22.90;99.90;;;;;;5088177;28;20434;-73
2023/09/03 09:14:21;;;;;;;2.97;2.30;;;23.00;99.90;;;;;;5087993;28;20828;-73
2023/09/03 09:16:46;;;;;;;4.43;2.57;;;23.00;99.90;;;;;;5088612;28;20428;-73
2023/09/03 09:19:16;;;;;;;5.67;2.60;;;23.30;99.90;;;;;;5088166;28;20492;-73
2023/09/03 09:21:42;;;;;;;5.30;3.37;;;23.60;99.90;;;;;;5088333;28;20185;-73
2023/09/03 09:24:07;;;;;;;3.13;2.63;;;23.80;99.90;;;;;;5088332;28;20487;-73
2023/09/03 09:26:33;;;;;;;5.17;2.53;;;24.20;99.90;;;;;;5087629;28;20290;-73
2023/09/03 09:29:03;;;;;;;4.60;2.70;;;24.40;99.90;;;;;;5087580;28;20190;-72
2023/09/03 09:31:30;;;;;;;2.87;2.60;;;24.70;99.90;;;;;;5087620;28;20683;-73
2023/09/03 09:33:57;;;;;;;3.27;2.60;;;24.40;99.90;;;;;;5087868;28;20424;-73
2023/09/03 09:36:22;;;;;;;4.20;2.33;;;24.60;99.90;;;;;;5087736;28;20501;-73
2023/09/03 09:38:48;;;;;;;2.60;2.40;;;24.90;99.90;;;;;;5087610;28;20451;-73
2023/09/03 09:41:25;;;;;;;3.97;2.57;;;25.00;99.90;;;;;;5087565;28;20202;-74
2023/09/03 09:43:51;;;;;;;5.63;2.80;;;25.30;99.90;;;;;;5087603;28;21060;-73
2023/09/03 09:46:31;;;;;;;5.33;2.60;;;25.40;99.90;;;;;;5085375;28;20516;-73
2023/09/03 09:48:58;;;;;;;2.90;2.67;;;25.80;99.90;;;;;;5087548;28;20535;-74
2023/09/03 09:51:26;;;;;;;3.90;2.70;;;25.90;99.90;;;;;;5086077;28;20424;-73
2023/09/03 09:54:00;;;;;;;2.90;2.50;;;26.10;99.90;;;;;;5087255;28;20415;-73
2023/09/03 09:56:27;;;;;;;2.80;2.60;;;26.30;99.90;;;;;;5087149;28;20444;-74
2023/09/03 09:58:53;;;;;;;6.27;2.53;;;26.40;99.90;;;;;;5087227;28;20775;-74
2023/09/03 10:01:19;;;;;;;2.60;2.40;;;26.40;99.90;;;;;;5085931;28;20432;-74
2023/09/03 10:03:49;;;;;;;2.53;2.30;;;26.40;99.90;;;;;;5068745;28;20954;-74
2023/09/03 10:06:16;;;;;;;3.23;2.30;;;26.60;99.90;;;;;;5085740;28;20581;-73
2023/09/03 10:08:45;;;;;;;2.70;2.50;;;26.50;99.90;;;;;;5087356;28;20534;-73
2023/09/03 10:11:11;;;;;;;3.90;2.80;;;26.80;99.90;;;;;;5087212;28;20864;-74
2023/09/03 10:13:39;;;;;;;5.50;2.80;;;27.00;99.90;;;;;;5087089;28;20405;-73
2023/09/03 10:16:06;;;;;;;3.73;2.47;;;27.10;99.90;;;;;;5087302;28;20872;-73
2023/09/03 10:18:36;;;;;;;2.77;2.57;;;27.10;99.90;;;;;;5087401;28;20917;-74
2023/09/03 10:21:05;;;;;;;2.60;2.20;;;27.10;99.90;;;;;;5087029;28;20529;-74
2023/09/03 10:23:37;;;;;;;2.77;2.33;;;27.00;99.90;;;;;;5085712;28;20851;-74
2023/09/03 10:26:04;;;;;;;2.80;2.27;;;26.90;99.90;;;;;;5086722;28;20460;-73
2023/09/03 10:28:33;;;;;;;2.60;2.40;;;26.80;99.90;;;;;;5085489;28;20411;-72
2023/09/03 10:30:59;;;;;;;2.77;2.10;;;26.90;99.90;;;;;;5087105;28;20421;-73
2023/09/03 10:33:24;;;;;;;3.40;2.33;;;26.90;99.90;;;;;;5085747;28;20450;-73
2023/09/03 10:36:13;;;;;;;2.33;2.13;;;27.10;99.90;;;;;;5085444;28;20225;-73
2023/09/03 10:38:39;;;;;;;3.93;1.77;;;27.20;99.90;;;;;;5086753;28;20185;-73
2023/09/03 10:41:17;;;;;;;2.47;2.00;;;27.60;99.90;;;;;;5087053;28;20436;-74
2023/09/03 10:43:42;;;;;;;2.87;2.10;;;27.80;99.90;;;;;;5086861;28;20416;-73
2023/09/03 10:46:08;;;;;;;3.13;2.50;;;27.90;99.90;;;;;;5085141;28;20483;-73
2023/09/03 10:48:37;;;;;;;5.40;2.20;;;28.10;99.90;;;;;;5086469;28;20190;-74
2023/09/03 10:51:04;;;;;;;5.00;2.30;;;27.80;99.90;;;;;;5086643;28;20182;-70
2023/09/03 10:53:35;;;;;;;1.80;1.70;;;27.50;99.90;;;;;;5086701;28;20456;-69
2023/09/03 10:56:16;;;;;;;4.60;1.93;;;27.20;99.90;;;;;;5086759;28;20455;-72
2023/09/03 10:58:59;;;;;;;4.90;2.10;;;27.00;99.90;;;;;;5090630;28;20907;-73
2023/09/03 11:01:31;;;;;;;3.50;2.10;;;26.80;99.90;;;;;;5089019;28;20780;-72
2023/09/03 11:03:59;;;;;;;3.20;2.20;;;26.70;99.90;;;;;;5090378;28;20492;-69
2023/09/03 11:06:26;;;;;;;1.93;1.73;;;26.60;99.90;;;;;;5090495;28;21002;-73
2023/09/03 11:09:04;;;;;;;2.93;2.20;;;26.60;99.90;;;;;;5090628;28;20408;-73
2023/09/03 11:11:33;;;;;;;3.03;2.03;;;26.40;99.90;;;;;;5089000;28;20419;-73
2023/09/03 11:14:00;;;;;;;6.43;2.23;;;26.40;99.90;;;;;;5089406;28;20961;-71
2023/09/03 11:16:43;;;;;;;3.10;1.83;;;26.40;99.90;;;;;;5090038;28;20807;-73
2023/09/03 11:19:09;;;;;;;1.60;1.50;;;26.30;99.90;;;;;;5088573;28;20423;-73
2023/09/03 11:21:36;;;;;;;1.70;1.47;;;26.20;99.90;;;;;;5088958;28;20416;-72
2023/09/03 11:24:06;;;;;;;4.53;1.67;;;26.10;99.90;;;;;;5090243;28;20182;-72
2023/09/03 11:26:37;;;;;;;4.50;1.70;;;26.10;99.90;;;;;;5090216;28;20452;-71
2023/09/03 11:29:03;;;;;;;2.40;2.20;;;26.00;99.90;;;;;;5090458;28;20441;-69
2023/09/03 11:31:29;;;;;;;2.00;1.67;;;26.00;99.90;;;;;;5090457;28;20417;-68
2023/09/03 11:33:56;;;;;;;1.50;1.40;;;26.00;99.90;;;;;;5090657;28;20171;-68
2023/09/03 11:36:24;;;;;;;4.17;1.67;;;25.90;99.90;;;;;;5090689;28;20487;-66
2023/09/03 11:38:50;;;;;;;2.10;1.43;;;26.00;99.90;;;;;;5090975;28;20928;-69
2023/09/03 11:41:20;;;;;;;3.23;1.67;;;26.00;99.90;;;;;;5072625;28;20997;-68
2023/09/03 11:43:46;;;;;;;1.50;1.40;;;26.00;99.90;;;;;;5091321;28;20421;-66
2023/09/03 11:46:16;;;;;;;1.50;1.40;;;26.10;99.90;;;;;;5091054;28;20812;-65
2023/09/03 11:48:50;;;;;;;1.67;1.57;;;26.10;99.90;;;;;;5091179;28;20542;-67
2023/09/03 11:51:26;;;;;;;1.53;1.43;;;26.10;99.90;;;;;;5090907;28;20412;-66
2023/09/03 11:53:52;;;;;;;1.30;1.10;;;26.00;99.90;;;;;;5090465;28;21003;-66
2023/09/03 11:56:20;;;;;;;2.10;1.40;;;26.20;99.90;;;;;;5090026;28;20535;-66
2023/09/03 11:58:51;;;;;;;1.73;1.40;;;26.20;99.90;;;;;;5089884;28;20689;-67
2023/09/03 12:01:17;;;;;;;1.47;1.37;;;26.20;99.90;;;;;;5089924;28;20928;-67
2023/09/03 12:03:44;;;;;;;1.67;1.53;;;26.00;99.90;;;;;;5088540;28;20412;-67
2023/09/03 12:06:10;;;;;;;2.47;1.60;;;26.00;99.90;;;;;;5089748;28;20460;-67
2023/09/03 12:08:35;;;;;;;2.67;1.40;;;26.10;99.90;;;;;;5089312;28;21103;-67
2023/09/03 12:11:01;;;;;;;2.03;1.43;;;26.20;99.90;;;;;;5089932;28;20526;-66
2023/09/03 12:13:34;;;;;;;1.70;1.60;;;26.30;99.90;;;;;;5088301;28;20231;-67
2023/09/03 12:16:05;;;;;;;1.47;1.37;;;26.20;99.90;;;;;;5089683;28;20217;-68
2023/09/03 12:18:31;;;;;;;2.07;1.97;;;26.20;99.90;;;;;;5089577;28;20516;-67
2023/09/03 12:20:57;;;;;;;2.10;1.80;;;26.20;99.90;;;;;;5089419;28;20910;-67
2023/09/03 12:23:23;;;;;;;1.43;1.30;;;26.30;99.90;;;;;;5089486;28;20417;-67
2023/09/03 12:25:48;;;;;;;2.20;1.67;;;26.20;99.90;;;;;;5089093;28;20256;-68
2023/09/03 12:28:15;;;;;;;3.77;1.70;;;26.20;99.90;;;;;;5089152;28;20196;-68
2023/09/03 12:31:00;;;;;;;1.57;1.47;;;26.20;99.90;;;;;;5088715;28;20259;-67
2023/09/03 12:33:32;;;;;;;3.50;1.80;;;26.20;99.90;;;;;;5088647;28;20913;-68
2023/09/03 12:36:09;;;;;;;1.60;1.23;;;26.30;99.90;;;;;;5088507;28;20436;-67
2023/09/03 12:38:58;;;;;;;2.03;1.50;;;26.40;99.90;;;;;;5088520;28;20415;-66
2023/09/03 12:41:30;;;;;;;1.67;1.50;;;26.30;99.90;;;;;;5087224;28;20924;-67
2023/09/03 12:43:56;;;;;;;1.40;1.30;;;26.20;99.90;;;;;;5086904;28;20435;-66
2023/09/03 12:46:22;;;;;;;1.57;1.40;;;26.00;99.90;;;;;;5088056;28;20484;-67
2023/09/03 12:48:48;;;;;;;2.27;1.80;;;25.80;99.90;;;;;;5088350;28;20271;-68